PGUA/UAM METAR and TAF weather

Enter ICAO airport designator
Station Type Date Time Source
PGUA METAR 2019/04/22 17:56 UTC NOAA

PGUA 221756Z 09011KT 10SM FEW019 FEW028 25/22 A2990 RMK SLP115 T02540247 10259 20253 56011 $


Station Type Date Time Source
PGUA Decoded METAR 2019/04/22 17:56 UTC NOAA

Andersen, Mariana Is, Andersen Air Force Base, GU, United States (PGUA) 13-35N 144-56E 187M
Apr 22, 2019 - 01:56 PM EDT / 2019.04.22 1756 UTC
Wind: from the E (090 degrees) at 13 MPH (11 KT):0
Visibility: 10 mile(s):0
Sky conditions: mostly clear
Temperature: 77.7 F (25.4 C)
Dew Point: 76.5 F (24.7 C)
Relative Humidity: 95%
Pressure (altimeter): 29.9 in. Hg (1012 hPa)
Pressure tendency: 0.03 inches (1.1 hPa) lower than three hours ago
ob: PGUA 221756Z 09011KT 10SM FEW019 FEW028 25/22 A2990 RMK SLP115 T02540247 10259 20253 56011
cycle: 18

Station Type Date Time Source
PGUA TAF 2019/04/22 18:13 UTC NOAA

TAF PGUA 221800Z 2218/2400 09012KT 9999 SCT015 QNH2982INS
TEMPO 2221/2227 09015G20KT TX30/2305Z TN25/2222Z

Example: see airport list